createdAt,value
2018-12-09T00:00:23.573Z,1.27
2018-12-09T00:02:51.753Z,1.17
2018-12-09T00:05:19.981Z,0.60
2018-12-09T00:07:48.166Z,1.90
2018-12-09T00:10:16.440Z,1.53
2018-12-09T00:12:44.604Z,0.80
2018-12-09T00:15:12.841Z,1.43
2018-12-09T00:17:41.076Z,1.73
2018-12-09T00:20:09.300Z,0.80
2018-12-09T00:22:37.499Z,1.83
2018-12-09T00:25:05.904Z,3.67
2018-12-09T00:27:34.044Z,6.20
2018-12-09T00:30:02.263Z,3.20
2018-12-09T00:32:30.354Z,5.47
2018-12-09T00:34:58.514Z,6.10
2018-12-09T00:37:26.771Z,6.90
2018-12-09T00:39:55.016Z,3.43
2018-12-09T00:42:23.179Z,10.23
2018-12-09T00:44:51.335Z,4.87
2018-12-09T00:47:19.536Z,10.10
2018-12-09T00:49:47.698Z,4.17
2018-12-09T00:52:15.867Z,6.57
2018-12-09T00:54:44.177Z,3.30
2018-12-09T00:57:12.435Z,6.23
2018-12-09T00:59:40.700Z,7.50
2018-12-09T01:02:10.157Z,3.27
2018-12-09T01:04:38.341Z,5.67
2018-12-09T01:07:06.788Z,6.07
2018-12-09T01:09:35.011Z,3.13
2018-12-09T01:12:03.250Z,3.70
2018-12-09T01:14:31.474Z,3.40
2018-12-09T01:16:59.628Z,3.03
2018-12-09T01:19:27.792Z,6.00
2018-12-09T01:21:55.965Z,4.80
2018-12-09T01:24:24.220Z,4.53
2018-12-09T01:26:52.351Z,9.23
2018-12-09T01:29:20.510Z,7.90
2018-12-09T01:31:48.662Z,5.77
2018-12-09T01:34:17.284Z,6.30
2018-12-09T01:36:45.526Z,5.03
2018-12-09T01:39:13.713Z,2.60
2018-12-09T01:41:41.880Z,2.93
2018-12-09T01:44:10.123Z,2.43
2018-12-09T01:46:38.361Z,4.00
2018-12-09T01:49:06.565Z,4.07
2018-12-09T01:51:34.799Z,2.93
2018-12-09T01:54:12.087Z,12.03
2018-12-09T01:56:40.298Z,3.50
2018-12-09T01:59:08.561Z,2.40
2018-12-09T02:01:36.733Z,3.17
2018-12-09T02:04:05.090Z,1.50
2018-12-09T02:06:33.812Z,1.63
2018-12-09T02:09:02.150Z,1.30
2018-12-09T02:11:30.373Z,3.53
2018-12-09T02:13:58.539Z,3.07
2018-12-09T02:16:26.707Z,3.43
2018-12-09T02:19:14.923Z,4.27
2018-12-09T02:21:43.551Z,1.53
2018-12-09T02:24:11.918Z,3.70
2018-12-09T02:26:40.120Z,2.70
2018-12-09T02:29:08.752Z,6.27
2018-12-09T02:31:37.073Z,5.60
2018-12-09T02:34:05.401Z,1.37
2018-12-09T02:36:34.225Z,2.53
2018-12-09T02:39:02.856Z,2.73
2018-12-09T02:41:31.192Z,3.73
2018-12-09T02:43:59.318Z,1.57
2018-12-09T02:46:27.578Z,4.13
2018-12-09T02:48:55.722Z,2.17
2018-12-09T02:51:24.072Z,4.23
2018-12-09T02:53:52.334Z,5.57
2018-12-09T02:56:20.663Z,2.63
2018-12-09T02:58:49.242Z,3.40
2018-12-09T03:01:17.345Z,3.40
2018-12-09T03:03:45.561Z,4.10
2018-12-09T03:06:13.957Z,2.70
2018-12-09T03:08:42.134Z,3.50
2018-12-09T03:11:10.311Z,4.40
2018-12-09T03:13:38.590Z,4.87
2018-12-09T03:16:06.801Z,1.67
2018-12-09T03:18:35.001Z,5.00
2018-12-09T03:21:03.268Z,4.17
2018-12-09T03:23:31.449Z,6.83
2018-12-09T03:25:59.559Z,4.87
2018-12-09T03:28:28.008Z,5.00
2018-12-09T03:30:56.266Z,3.37
2018-12-09T03:33:24.763Z,4.00
2018-12-09T03:35:52.948Z,2.80
2018-12-09T03:38:21.230Z,8.07
2018-12-09T03:40:49.483Z,4.30
2018-12-09T03:43:17.827Z,2.87
2018-12-09T03:45:46.022Z,5.80
2018-12-09T03:48:14.134Z,5.50
2018-12-09T03:50:42.416Z,1.87
2018-12-09T03:53:10.727Z,7.37
2018-12-09T03:55:39.307Z,3.07
2018-12-09T03:58:07.586Z,4.80
2018-12-09T04:00:35.801Z,2.70
2018-12-09T04:03:04.350Z,4.80
2018-12-09T04:05:32.627Z,4.17
2018-12-09T04:08:00.871Z,3.07
2018-12-09T04:10:29.050Z,2.07
2018-12-09T04:12:57.227Z,3.37
2018-12-09T04:15:25.485Z,2.17
2018-12-09T04:17:53.685Z,2.07
2018-12-09T04:20:22.285Z,1.77
2018-12-09T04:22:50.491Z,0.93
2018-12-09T04:25:18.674Z,0.73
2018-12-09T04:27:46.860Z,2.00
2018-12-09T04:30:15.100Z,1.80
2018-12-09T04:32:43.599Z,2.10
2018-12-09T04:35:11.929Z,1.90
2018-12-09T04:37:40.053Z,1.90
2018-12-09T04:40:08.811Z,1.77
2018-12-09T04:42:37.156Z,0.90
2018-12-09T04:45:05.590Z,1.63
2018-12-09T04:47:33.729Z,1.33
2018-12-09T04:50:02.033Z,2.83
2018-12-09T04:52:30.250Z,1.50
2018-12-09T04:54:58.596Z,1.00
2018-12-09T04:57:26.841Z,3.50
2018-12-09T05:00:04.988Z,2.20
2018-12-09T05:02:33.181Z,4.93
2018-12-09T05:05:01.380Z,4.93
2018-12-09T05:07:29.660Z,4.60
2018-12-09T05:09:57.863Z,5.43
2018-12-09T05:12:26.052Z,4.40
2018-12-09T05:14:54.177Z,5.23
2018-12-09T05:17:22.772Z,8.50
2018-12-09T05:19:50.992Z,6.90
2018-12-09T05:22:19.247Z,7.43
2018-12-09T05:24:47.375Z,7.43
2018-12-09T05:27:15.643Z,7.33
2018-12-09T05:29:44.228Z,7.83
2018-12-09T05:32:12.402Z,6.33
2018-12-09T05:34:40.583Z,6.60
2018-12-09T05:37:08.841Z,4.30
2018-12-09T05:39:37.039Z,7.03
2018-12-09T05:42:05.769Z,6.13
2018-12-09T05:44:33.904Z,6.27
2018-12-09T05:47:02.017Z,3.63
2018-12-09T05:49:30.235Z,7.50
2018-12-09T05:51:58.353Z,3.83
2018-12-09T05:54:26.656Z,4.20
2018-12-09T05:56:54.785Z,5.30
2018-12-09T05:59:22.904Z,4.70
2018-12-09T06:01:51.179Z,7.10
2018-12-09T06:04:19.310Z,4.17
2018-12-09T06:06:47.427Z,3.47
2018-12-09T06:09:15.650Z,4.00
2018-12-09T06:11:43.778Z,6.00
2018-12-09T06:14:11.973Z,10.83
2018-12-09T06:16:40.272Z,3.67
2018-12-09T06:19:08.525Z,5.93
2018-12-09T06:21:36.696Z,5.13
2018-12-09T06:24:04.910Z,6.57
2018-12-09T06:26:33.115Z,4.27
2018-12-09T06:29:01.227Z,3.47
2018-12-09T06:31:29.333Z,5.87
2018-12-09T06:33:57.447Z,9.47
2018-12-09T06:36:25.569Z,2.77
2018-12-09T06:38:53.793Z,3.93
2018-12-09T06:41:21.901Z,5.33
2018-12-09T06:43:50.011Z,3.93
2018-12-09T06:46:18.108Z,2.80
2018-12-09T06:48:46.363Z,6.07
2018-12-09T06:51:14.565Z,7.60
2018-12-09T06:53:42.713Z,3.17
2018-12-09T06:56:10.882Z,3.43
2018-12-09T06:58:39.140Z,2.97
2018-12-09T07:01:07.370Z,2.70
2018-12-09T07:03:35.486Z,2.60
2018-12-09T07:06:03.744Z,3.57
2018-12-09T07:08:31.936Z,6.60
2018-12-09T07:11:00.111Z,5.93
2018-12-09T07:13:28.212Z,3.07
2018-12-09T07:15:56.440Z,3.73
2018-12-09T07:18:24.617Z,3.67
2018-12-09T07:20:53.130Z,3.70
2018-12-09T07:23:21.444Z,3.57
2018-12-09T07:25:49.709Z,2.40
2018-12-09T07:28:17.833Z,5.80
2018-12-09T07:30:45.976Z,4.40
2018-12-09T07:33:14.464Z,3.13
2018-12-09T07:35:42.579Z,1.97
2018-12-09T07:38:10.772Z,2.60
2018-12-09T07:40:38.960Z,2.80
2018-12-09T07:43:07.177Z,1.70
2018-12-09T07:45:35.677Z,1.40
2018-12-09T07:48:03.990Z,3.10
2018-12-09T07:50:32.118Z,1.30
2018-12-09T07:53:00.272Z,4.17
2018-12-09T07:55:28.461Z,2.33
2018-12-09T07:57:56.727Z,3.37
2018-12-09T08:00:24.984Z,3.77
2018-12-09T08:02:53.192Z,3.00
2018-12-09T08:05:21.320Z,3.87
2018-12-09T08:07:49.500Z,1.90
2018-12-09T08:10:17.690Z,11.70
2018-12-09T08:12:45.878Z,2.20
2018-12-09T08:15:14.066Z,4.20
2018-12-09T08:17:42.242Z,2.03
2018-12-09T08:20:10.437Z,3.63
2018-12-09T08:22:38.608Z,3.73
2018-12-09T08:25:06.885Z,4.27
2018-12-09T08:27:35.048Z,2.50
2018-12-09T08:30:03.391Z,8.90
2018-12-09T08:32:31.505Z,3.27
2018-12-09T08:34:59.695Z,2.20
2018-12-09T08:37:27.828Z,2.30
2018-12-09T08:39:56.015Z,2.33
2018-12-09T08:42:24.117Z,1.93
2018-12-09T08:44:52.287Z,3.37
2018-12-09T08:47:20.445Z,3.77
2018-12-09T08:49:48.619Z,3.63
2018-12-09T08:52:16.789Z,2.73
2018-12-09T08:54:44.900Z,6.17
2018-12-09T08:57:13.633Z,2.10
2018-12-09T08:59:41.810Z,2.00
2018-12-09T09:02:09.991Z,3.33
2018-12-09T09:04:38.253Z,3.70
2018-12-09T09:07:06.496Z,4.50
2018-12-09T09:09:34.737Z,3.30
2018-12-09T09:12:02.989Z,1.87
2018-12-09T09:14:31.182Z,1.60
2018-12-09T09:16:59.349Z,2.10
2018-12-09T09:19:27.456Z,1.77
2018-12-09T09:21:55.640Z,1.37
2018-12-09T09:24:23.839Z,4.23
2018-12-09T09:26:51.950Z,2.60
2018-12-09T09:29:20.081Z,2.13
2018-12-09T09:31:48.193Z,2.10
2018-12-09T09:34:16.295Z,1.23
2018-12-09T09:36:44.501Z,1.50
2018-12-09T09:39:12.669Z,1.40
2018-12-09T09:41:40.911Z,3.53
2018-12-09T09:44:09.012Z,2.07
2018-12-09T09:46:37.186Z,3.93
2018-12-09T09:49:05.425Z,1.30
2018-12-09T09:51:33.617Z,3.80
2018-12-09T09:54:01.800Z,3.70
2018-12-09T09:56:30.069Z,1.70
2018-12-09T09:58:58.249Z,2.70
2018-12-09T10:01:26.455Z,0.83
2018-12-09T10:03:54.644Z,0.60
2018-12-09T10:06:22.821Z,1.03
2018-12-09T10:08:51.009Z,1.10
2018-12-09T10:11:19.114Z,0.60
2018-12-09T10:13:47.284Z,0.93
2018-12-09T10:16:15.482Z,2.10
2018-12-09T10:18:43.590Z,0.80
2018-12-09T10:21:11.790Z,1.80
2018-12-09T10:23:40.108Z,0.73
2018-12-09T10:26:08.424Z,1.80
2018-12-09T10:28:36.709Z,1.67
2018-12-09T10:31:05.001Z,0.70
2018-12-09T10:33:33.119Z,1.33
2018-12-09T10:36:01.251Z,0.60
2018-12-09T10:38:29.382Z,0.77
2018-12-09T10:40:57.620Z,1.33
2018-12-09T10:43:25.727Z,0.63
2018-12-09T10:45:53.831Z,1.53
2018-12-09T10:48:21.943Z,3.30
2018-12-09T10:50:50.049Z,1.80
2018-12-09T10:53:18.456Z,1.20
2018-12-09T10:55:47.420Z,4.27
2018-12-09T10:58:15.606Z,0.93
2018-12-09T11:00:49.386Z,0.70
2018-12-09T11:03:17.522Z,0.80
2018-12-09T11:05:45.790Z,0.80
2018-12-09T11:08:13.935Z,0.90
2018-12-09T11:10:42.044Z,1.03
2018-12-09T11:13:10.401Z,0.50
2018-12-09T11:15:38.524Z,2.07
2018-12-09T11:18:06.786Z,0.80
2018-12-09T11:20:34.973Z,1.17
2018-12-09T11:23:03.172Z,2.60
2018-12-09T11:25:31.275Z,3.27
2018-12-09T11:27:59.447Z,3.57
2018-12-09T11:30:27.624Z,1.67
2018-12-09T11:32:55.805Z,0.77
2018-12-09T11:35:24.000Z,0.90
2018-12-09T11:37:52.201Z,1.00
2018-12-09T11:40:20.386Z,2.93
2018-12-09T11:42:48.593Z,4.97
2018-12-09T11:45:16.777Z,3.07
2018-12-09T11:47:45.141Z,3.03
2018-12-09T11:50:13.310Z,3.07
2018-12-09T11:52:41.434Z,2.47
2018-12-09T11:55:09.703Z,6.13
2018-12-09T11:57:37.884Z,5.13
2018-12-09T12:00:10.024Z,3.70
2018-12-09T12:02:38.196Z,1.50
2018-12-09T12:05:06.896Z,7.10
2018-12-09T12:07:35.129Z,2.60
2018-12-09T12:10:03.747Z,2.83
2018-12-09T12:12:31.925Z,2.07
2018-12-09T12:15:00.083Z,4.40
2018-12-09T12:17:28.258Z,3.17
2018-12-09T12:19:56.385Z,2.17
2018-12-09T12:22:24.553Z,2.83
2018-12-09T12:24:52.757Z,1.70
2018-12-09T12:27:21.026Z,7.00
2018-12-09T12:29:49.129Z,3.63
2018-12-09T12:32:17.298Z,2.10
2018-12-09T12:34:45.490Z,3.83
2018-12-09T12:37:13.727Z,3.47
2018-12-09T12:39:41.909Z,3.80
2018-12-09T12:42:10.152Z,1.93
2018-12-09T12:44:38.261Z,2.07
2018-12-09T12:47:06.620Z,2.87
2018-12-09T12:49:34.860Z,9.80
2018-12-09T12:52:03.128Z,4.97
2018-12-09T12:54:31.271Z,2.00
2018-12-09T12:56:59.366Z,3.23
2018-12-09T12:59:27.561Z,3.80
2018-12-09T13:01:55.801Z,3.10
2018-12-09T13:04:23.993Z,4.93
2018-12-09T13:06:52.227Z,3.90
2018-12-09T13:09:20.417Z,4.60
2018-12-09T13:11:48.712Z,6.23
2018-12-09T13:14:16.920Z,3.50
2018-12-09T13:16:45.033Z,3.43
2018-12-09T13:19:13.265Z,8.40
2018-12-09T13:21:41.504Z,4.47
2018-12-09T13:24:09.629Z,0.90
2018-12-09T13:26:37.873Z,4.63
2018-12-09T13:29:06.133Z,4.97
2018-12-09T13:31:34.425Z,4.50
2018-12-09T13:34:02.689Z,3.33
2018-12-09T13:36:30.848Z,4.60
2018-12-09T13:38:59.072Z,3.50
2018-12-09T13:41:27.285Z,5.47
2018-12-09T13:43:55.468Z,1.40
2018-12-09T13:46:23.723Z,8.37
2018-12-09T13:48:51.967Z,4.63
2018-12-09T13:51:20.100Z,5.50
2018-12-09T13:53:48.269Z,5.80
2018-12-09T13:56:16.372Z,1.43
2018-12-09T13:58:44.533Z,4.90
2018-12-09T14:01:12.778Z,4.27
2018-12-09T14:03:41.173Z,21.00
2018-12-09T14:06:09.316Z,3.43
2018-12-09T14:08:37.496Z,5.70
2018-12-09T14:11:05.673Z,2.33
2018-12-09T14:13:33.900Z,2.60
2018-12-09T14:16:02.193Z,1.80
2018-12-09T14:18:30.501Z,3.63
2018-12-09T14:20:58.825Z,5.13
2018-12-09T14:23:27.065Z,2.10
2018-12-09T14:25:55.380Z,4.40
2018-12-09T14:28:23.590Z,2.70
2018-12-09T14:30:51.796Z,4.57
2018-12-09T14:33:20.038Z,5.53
2018-12-09T14:35:48.194Z,5.00
2018-12-09T14:38:16.421Z,7.70
2018-12-09T14:40:44.565Z,4.87
2018-12-09T14:43:12.856Z,1.80
2018-12-09T14:45:48.721Z,3.37
2018-12-09T14:48:11.219Z,5.13
2018-12-09T14:50:39.417Z,1.90
2018-12-09T14:53:07.534Z,5.50
2018-12-09T14:55:35.766Z,3.67
2018-12-09T14:58:03.929Z,4.20
2018-12-09T15:00:32.167Z,6.63
2018-12-09T15:03:00.313Z,8.60
2018-12-09T15:05:28.517Z,4.80
2018-12-09T15:07:56.625Z,2.57
2018-12-09T15:10:24.862Z,4.13
2018-12-09T15:12:53.017Z,5.87
2018-12-09T15:15:21.217Z,3.13
2018-12-09T15:17:49.389Z,3.57
2018-12-09T15:20:17.575Z,3.27
2018-12-09T15:22:45.758Z,3.90
2018-12-09T15:25:13.886Z,4.97
2018-12-09T15:27:42.036Z,2.33
2018-12-09T15:30:10.254Z,5.87
2018-12-09T15:32:38.359Z,3.23
2018-12-09T15:35:06.628Z,2.60
2018-12-09T15:37:34.798Z,7.37
2018-12-09T15:40:03.013Z,4.10
2018-12-09T15:42:31.174Z,1.60
2018-12-09T15:44:59.345Z,3.40
2018-12-09T15:47:27.468Z,4.30
2018-12-09T15:49:55.627Z,4.57
2018-12-09T15:52:23.717Z,8.13
2018-12-09T15:54:51.884Z,7.50
2018-12-09T15:57:20.042Z,2.40
2018-12-09T15:59:48.161Z,3.70
2018-12-09T16:02:16.288Z,4.27
2018-12-09T16:04:44.379Z,1.60
2018-12-09T16:07:12.577Z,3.10
2018-12-09T16:09:40.731Z,3.10
2018-12-09T16:12:08.960Z,5.40
2018-12-09T16:14:37.041Z,4.40
2018-12-09T16:17:05.286Z,2.53
2018-12-09T16:19:33.472Z,7.23
2018-12-09T16:22:01.594Z,7.03
2018-12-09T16:24:29.701Z,4.67
2018-12-09T16:26:57.794Z,3.77
2018-12-09T16:29:25.927Z,4.50
2018-12-09T16:31:54.128Z,4.87
2018-12-09T16:34:22.310Z,3.63
2018-12-09T16:36:50.492Z,4.50
2018-12-09T16:39:18.617Z,3.23
2018-12-09T16:41:46.719Z,3.80
2018-12-09T16:44:14.825Z,3.20
2018-12-09T16:46:42.927Z,4.07
2018-12-09T16:49:11.121Z,4.37
2018-12-09T16:51:39.296Z,6.40
2018-12-09T16:54:07.541Z,6.00
2018-12-09T16:56:35.644Z,9.10
2018-12-09T16:59:05.283Z,9.33
2018-12-09T17:01:33.532Z,6.10
2018-12-09T17:04:01.724Z,5.27
2018-12-09T17:06:29.914Z,5.77
2018-12-09T17:08:58.041Z,8.23
2018-12-09T17:11:26.141Z,4.87
2018-12-09T17:13:54.236Z,6.97
2018-12-09T17:16:22.405Z,5.43
2018-12-09T17:18:50.603Z,5.53
2018-12-09T17:21:18.696Z,9.00
2018-12-09T17:23:46.873Z,9.07
2018-12-09T17:26:15.086Z,9.27
2018-12-09T17:28:43.181Z,6.33
2018-12-09T17:31:11.352Z,5.63
2018-12-09T17:33:39.448Z,10.83
2018-12-09T17:36:07.546Z,10.90
2018-12-09T17:38:36.107Z,5.53
2018-12-09T17:41:04.357Z,5.17
2018-12-09T17:43:32.460Z,8.03
2018-12-09T17:46:00.672Z,5.47
2018-12-09T17:48:28.850Z,10.37
2018-12-09T17:50:57.025Z,8.40
2018-12-09T17:53:25.232Z,9.00
2018-12-09T17:55:53.337Z,6.40
2018-12-09T17:58:21.441Z,9.10
2018-12-09T18:00:49.656Z,10.90
2018-12-09T18:03:17.834Z,13.63
2018-12-09T18:05:45.943Z,10.13
2018-12-09T18:08:14.057Z,9.77
2018-12-09T18:10:42.217Z,6.40
2018-12-09T18:13:10.380Z,11.50
2018-12-09T18:15:38.616Z,12.33
2018-12-09T18:18:06.796Z,7.40
2018-12-09T18:20:34.904Z,7.17
2018-12-09T18:23:03.134Z,14.30
2018-12-09T18:25:31.310Z,10.33
2018-12-09T18:27:59.424Z,13.50
2018-12-09T18:30:27.792Z,5.90
2018-12-09T18:32:56.061Z,9.00
2018-12-09T18:35:24.221Z,9.80
2018-12-09T18:37:52.938Z,8.13
2018-12-09T18:40:21.195Z,11.53
2018-12-09T18:42:50.352Z,9.80
2018-12-09T18:45:18.776Z,11.47
2018-12-09T18:47:47.010Z,13.43
2018-12-09T18:50:15.190Z,12.60
2018-12-09T18:52:43.277Z,9.50
2018-12-09T18:55:11.605Z,16.03
2018-12-09T18:57:39.713Z,10.63
2018-12-09T19:00:07.983Z,10.50
2018-12-09T19:02:36.058Z,9.30
2018-12-09T19:05:04.629Z,13.20
2018-12-09T19:07:32.847Z,18.27
2018-12-09T19:10:02.282Z,15.60
2018-12-09T19:12:36.350Z,11.00
2018-12-09T19:15:04.960Z,9.70
2018-12-09T19:17:33.186Z,19.70
2018-12-09T19:20:01.337Z,10.27
2018-12-09T19:22:29.600Z,11.33
2018-12-09T19:24:57.806Z,9.17
2018-12-09T19:27:26.069Z,14.03
2018-12-09T19:29:54.316Z,14.80
2018-12-09T19:32:22.507Z,24.73
2018-12-09T19:34:50.679Z,23.03
2018-12-09T19:37:18.929Z,18.27
2018-12-09T19:39:47.041Z,14.10
2018-12-09T19:42:15.153Z,15.40
2018-12-09T19:44:43.329Z,10.00
2018-12-09T19:47:11.936Z,15.20
2018-12-09T19:49:40.137Z,19.70
2018-12-09T19:52:08.402Z,12.33
2018-12-09T19:54:36.665Z,14.03
2018-12-09T19:57:04.923Z,15.90
2018-12-09T19:59:33.165Z,11.90
2018-12-09T20:02:01.309Z,12.80
2018-12-09T20:04:29.527Z,22.50
2018-12-09T20:06:57.771Z,12.67
2018-12-09T20:09:26.830Z,17.73
2018-12-09T20:11:55.108Z,16.50
2018-12-09T20:14:23.496Z,13.77
2018-12-09T20:16:51.700Z,11.80
2018-12-09T20:19:19.899Z,6.77
2018-12-09T20:21:48.029Z,16.10
2018-12-09T20:24:16.258Z,11.60
2018-12-09T20:26:44.449Z,13.30
2018-12-09T20:29:12.578Z,13.37
2018-12-09T20:31:40.753Z,9.83
2018-12-09T20:34:08.985Z,15.40
2018-12-09T20:36:37.310Z,15.43
2018-12-09T20:39:07.471Z,17.13
2018-12-09T20:41:35.677Z,15.23
2018-12-09T20:44:03.981Z,15.03
2018-12-09T20:46:33.205Z,12.57
2018-12-09T20:49:01.502Z,15.23
2018-12-09T20:51:29.807Z,15.33
2018-12-09T20:53:58.081Z,18.33
2018-12-09T20:56:26.269Z,19.50
2018-12-09T20:58:54.464Z,12.27
2018-12-09T21:01:22.581Z,16.90
2018-12-09T21:03:50.826Z,15.43
2018-12-09T21:06:18.998Z,8.13
2018-12-09T21:08:47.119Z,16.33
2018-12-09T21:11:15.268Z,18.47
2018-12-09T21:13:43.396Z,15.53
2018-12-09T21:16:11.595Z,17.50
2018-12-09T21:18:39.833Z,14.87
2018-12-09T21:21:08.377Z,16.43
2018-12-09T21:23:36.702Z,17.73
2018-12-09T21:26:05.010Z,22.80
2018-12-09T21:28:33.546Z,12.17
2018-12-09T21:31:01.769Z,13.13
2018-12-09T21:33:30.027Z,12.80
2018-12-09T21:35:58.229Z,21.20
2018-12-09T21:38:26.655Z,9.93
2018-12-09T21:40:54.783Z,19.30
2018-12-09T21:43:22.978Z,21.87
2018-12-09T21:45:51.091Z,10.17
2018-12-09T21:48:19.293Z,16.57
2018-12-09T21:50:47.483Z,13.20
2018-12-09T21:53:15.688Z,10.90
2018-12-09T21:55:43.796Z,11.80
2018-12-09T21:58:12.068Z,12.30
2018-12-09T22:00:40.262Z,18.10
2018-12-09T22:03:08.806Z,15.93
2018-12-09T22:05:37.061Z,17.40
2018-12-09T22:08:05.246Z,13.07
2018-12-09T22:10:33.431Z,9.07
2018-12-09T22:13:01.617Z,16.67
2018-12-09T22:15:29.733Z,13.07
2018-12-09T22:17:57.986Z,10.10
2018-12-09T22:20:26.170Z,14.60
2018-12-09T22:22:54.347Z,12.37
2018-12-09T22:25:22.510Z,10.13
2018-12-09T22:27:50.637Z,11.33
2018-12-09T22:30:18.742Z,16.10
2018-12-09T22:32:46.895Z,10.87
2018-12-09T22:35:15.077Z,6.60
2018-12-09T22:37:43.290Z,15.20
2018-12-09T22:40:11.533Z,12.97
2018-12-09T22:42:39.651Z,11.37
2018-12-09T22:45:07.893Z,14.77
2018-12-09T22:47:36.117Z,9.33
2018-12-09T22:50:04.958Z,9.47
2018-12-09T22:52:33.054Z,11.50
2018-12-09T22:55:01.197Z,16.63
2018-12-09T22:57:29.364Z,15.13
2018-12-09T22:59:57.474Z,12.47
2018-12-09T23:02:31.131Z,12.47
2018-12-09T23:04:59.319Z,6.93
2018-12-09T23:07:32.834Z,16.53
2018-12-09T23:10:00.937Z,15.80
2018-12-09T23:12:29.109Z,9.10
2018-12-09T23:14:57.354Z,9.57
2018-12-09T23:17:25.527Z,22.33
2018-12-09T23:19:53.638Z,10.60
2018-12-09T23:22:21.805Z,16.27
2018-12-09T23:24:49.949Z,9.47
2018-12-09T23:27:18.104Z,17.33
2018-12-09T23:29:46.240Z,10.73
2018-12-09T23:32:14.514Z,20.97
2018-12-09T23:34:42.630Z,10.13
2018-12-09T23:37:10.765Z,11.50
2018-12-09T23:39:38.904Z,16.43
2018-12-09T23:42:07.281Z,13.23
2018-12-09T23:44:35.784Z,8.80
2018-12-09T23:47:04.044Z,10.40
2018-12-09T23:49:32.227Z,10.77
2018-12-09T23:52:00.394Z,6.53
2018-12-09T23:54:28.705Z,12.07
2018-12-09T23:56:56.829Z,9.07
2018-12-09T23:59:24.956Z,12.23
